createdAt,value
2022-08-29T00:02:18.501Z,-20524.09
2022-08-29T00:04:46.629Z,-20520.16
2022-08-29T00:07:14.533Z,-20521.66
2022-08-29T00:09:42.212Z,-20515.44
2022-08-29T00:12:10.582Z,-20520.31
2022-08-29T00:14:38.290Z,-20517.88
2022-08-29T00:17:07.295Z,-20517.28
2022-08-29T00:19:34.977Z,-20518.19
2022-08-29T00:22:02.718Z,-20516.66
2022-08-29T00:24:30.528Z,-20513.16
2022-08-29T00:27:00.248Z,-20515.13
2022-08-29T00:29:27.949Z,-20516.03
2022-08-29T00:31:55.934Z,-20513.00
2022-08-29T00:34:24.977Z,-20513.91
2022-08-29T00:36:53.455Z,-20515.13
2022-08-29T00:39:23.159Z,-20515.59
2022-08-29T00:41:51.650Z,-20513.63
2022-08-29T00:44:19.930Z,-20513.63
2022-08-29T00:46:52.808Z,-20508.00
2022-08-29T00:49:36.722Z,-20506.63
2022-08-29T00:52:09.154Z,-20507.53
2022-08-29T00:54:38.472Z,-20505.41
2022-08-29T00:57:06.829Z,-20505.41
2022-08-29T00:59:38.420Z,-20502.22
2022-08-29T01:02:08.188Z,-20502.38
2022-08-29T01:04:37.325Z,-20498.88
2022-08-29T01:07:05.368Z,-20499.34
2022-08-29T01:09:34.397Z,-20498.88
2022-08-29T01:12:16.436Z,-20495.25
2022-08-29T01:14:52.450Z,-20499.34
2022-08-29T01:17:24.925Z,-20506.03
2022-08-29T01:19:59.040Z,-20497.50
2022-08-29T01:22:37.684Z,-20496.16
2022-08-29T01:25:09.461Z,-20495.09
2022-08-29T01:27:42.738Z,-20499.66
2022-08-29T01:30:11.253Z,-20497.50
2022-08-29T01:32:38.982Z,-20496.91
2022-08-29T01:35:08.533Z,-20489.00
2022-08-29T01:37:39.416Z,-20495.38
2022-08-29T01:40:09.999Z,-20492.66
2022-08-29T01:42:37.806Z,-20489.31
2022-08-29T01:45:09.730Z,-20492.66
2022-08-29T01:47:39.922Z,-20492.66
2022-08-29T01:50:10.368Z,-20490.81
2022-08-29T01:52:38.041Z,-20491.44
2022-08-29T01:55:06.739Z,-20493.88
2022-08-29T01:57:37.869Z,-20497.22
2022-08-29T02:00:07.763Z,-20489.78
2022-08-29T02:02:35.974Z,-20485.06
2022-08-29T02:05:05.739Z,-20486.56
2022-08-29T02:07:33.419Z,-20483.38
2022-08-29T02:10:01.093Z,-20482.31
2022-08-29T02:12:31.586Z,-20481.72
2022-08-29T02:15:00.946Z,-20480.03
2022-08-29T02:17:29.614Z,-20485.34
2022-08-29T02:19:57.201Z,-20482.63
2022-08-29T02:22:24.809Z,-20477.16
2022-08-29T02:24:52.451Z,-20481.09
2022-08-29T02:27:20.079Z,-20478.06
2022-08-29T02:29:47.751Z,-20477.00
2022-08-29T02:32:16.874Z,-20481.56
2022-08-29T02:34:47.804Z,-20475.94
2022-08-29T02:37:16.580Z,-20473.81
2022-08-29T02:39:44.297Z,-20474.25
2022-08-29T02:42:12.063Z,-20472.28
2022-08-29T02:44:39.893Z,-20473.19
2022-08-29T02:47:09.268Z,-20473.34
2022-08-29T02:49:39.490Z,-20474.41
2022-08-29T02:52:08.480Z,-20472.88
2022-08-29T02:54:36.714Z,-20473.50
2022-08-29T02:57:05.005Z,-20471.38
2022-08-29T02:59:32.770Z,-20469.69
2022-08-29T03:02:00.424Z,-20468.78
2022-08-29T03:04:28.367Z,-20466.66
2022-08-29T03:06:57.828Z,-20469.53
2022-08-29T03:09:25.511Z,-20465.13
2022-08-29T03:11:56.071Z,-20465.59
2022-08-29T03:14:24.215Z,-20461.63
2022-08-29T03:16:52.073Z,-20459.81
2022-08-29T03:19:19.742Z,-20460.13
2022-08-29T03:21:47.598Z,-20458.91
2022-08-29T03:24:16.598Z,-20461.63
2022-08-29T03:26:56.922Z,-20457.97
2022-08-29T03:29:26.378Z,-20462.41
2022-08-29T03:31:58.149Z,-20459.19
2022-08-29T03:34:26.434Z,-20457.38
2022-08-29T03:36:54.541Z,-20453.13
2022-08-29T03:39:23.587Z,-20454.03
2022-08-29T03:41:51.205Z,-20457.38
2022-08-29T03:44:19.110Z,-20456.31
2022-08-29T03:46:47.323Z,-20454.63
2022-08-29T03:49:15.484Z,-20451.59
2022-08-29T03:51:43.459Z,-20454.03
2022-08-29T03:54:11.282Z,-20445.50
2022-08-29T03:56:40.505Z,-20446.72
2022-08-29T03:59:08.741Z,-20448.56
2022-08-29T04:01:36.388Z,-20443.84
2022-08-29T04:04:04.885Z,-20447.94
2022-08-29T04:06:33.765Z,-20445.19
2022-08-29T04:09:02.158Z,-20435.78
2022-08-29T04:11:29.841Z,-20438.38
2022-08-29T04:13:58.833Z,-20434.84
2022-08-29T04:16:31.094Z,-20434.84
2022-08-29T04:18:59.074Z,-20436.84
2022-08-29T04:21:27.233Z,-20438.22
2022-08-29T04:23:55.312Z,-20434.25
2022-08-29T04:26:39.193Z,-20426.34
2022-08-29T04:29:09.912Z,-20422.69
2022-08-29T04:31:39.189Z,-20425.72
2022-08-29T04:34:08.563Z,-20424.19
2022-08-29T04:36:36.798Z,-20417.03
2022-08-29T04:39:05.319Z,-20414.16
2022-08-29T04:41:33.430Z,-20415.06
2022-08-29T04:44:02.103Z,-20419.63
2022-08-29T04:46:32.107Z,-20421.91
2022-08-29T04:49:03.950Z,-20414.91
2022-08-29T04:51:32.333Z,-20415.06
2022-08-29T04:54:00.006Z,-20419.47
2022-08-29T04:56:27.666Z,-20419.47
2022-08-29T04:58:57.516Z,-20408.06
2022-08-29T05:01:27.264Z,-20399.69
2022-08-29T05:03:57.888Z,-20402.88
2022-08-29T05:06:26.653Z,-20406.22
2022-08-29T05:08:59.156Z,-20408.22
2022-08-29T05:11:29.867Z,-20410.34
2022-08-29T05:13:58.917Z,-20407.59
2022-08-29T05:16:27.347Z,-20410.19
2022-08-29T05:18:56.598Z,-20409.88
2022-08-29T05:21:27.158Z,-20416.59
2022-08-29T05:23:56.370Z,-20417.81
2022-08-29T05:26:24.590Z,-20419.94
2022-08-29T05:28:52.624Z,-20415.66
2022-08-29T05:31:22.160Z,-20416.13
2022-08-29T05:33:50.097Z,-20422.69
2022-08-29T05:36:19.354Z,-20424.66
2022-08-29T05:38:47.233Z,-20433.34
2022-08-29T05:41:14.919Z,-20442.91
2022-08-29T05:43:42.571Z,-20447.94
2022-08-29T05:46:11.290Z,-20458.44
2022-08-29T05:48:42.300Z,-20466.81
2022-08-29T05:51:16.353Z,-20469.84
2022-08-29T05:53:46.102Z,-20463.16
2022-08-29T05:56:14.075Z,-20459.81
2022-08-29T05:58:41.733Z,-20453.56
2022-08-29T06:01:09.362Z,-20453.41
2022-08-29T06:03:37.178Z,-20450.06
2022-08-29T06:06:04.988Z,-20449.78
2022-08-29T06:08:32.646Z,-20452.34
2022-08-29T06:11:01.878Z,-20456.47
2022-08-29T06:13:29.510Z,-20456.78
2022-08-29T06:15:57.755Z,-20447.34
2022-08-29T06:18:26.928Z,-20451.28
2022-08-29T06:21:05.142Z,-20449.91
2022-08-29T06:23:32.832Z,-20444.00
2022-08-29T06:26:02.161Z,-20446.88
2022-08-29T06:28:30.146Z,-20449.31
2022-08-29T06:30:58.150Z,-20455.25
2022-08-29T06:33:25.908Z,-20465.28
2022-08-29T06:35:54.008Z,-20471.53
2022-08-29T06:38:21.764Z,-20468.94
2022-08-29T06:40:49.354Z,-20467.41
2022-08-29T06:43:18.442Z,-20467.13
2022-08-29T06:45:46.085Z,-20466.50
2022-08-29T06:48:14.015Z,-20470.00
2022-08-29T06:50:45.554Z,-20482.91
2022-08-29T06:53:26.908Z,-20509.66
2022-08-29T06:55:55.860Z,-20522.13
2022-08-29T06:58:25.080Z,-20533.50
2022-08-29T07:00:52.720Z,-20561.28
2022-08-29T07:03:21.741Z,-20576.75
2022-08-29T07:05:53.301Z,-20576.28
2022-08-29T07:08:20.956Z,-20576.28
2022-08-29T07:10:48.619Z,-20573.72
2022-08-29T07:13:16.395Z,-20582.94
2022-08-29T07:15:45.593Z,-20599.94
2022-08-29T07:18:13.267Z,-20594.03
2022-08-29T07:20:41.041Z,-20595.84
2022-08-29T07:23:08.920Z,-20609.31
2022-08-29T07:25:38.703Z,-20596.75
2022-08-29T07:28:07.206Z,-20592.50
2022-08-29T07:30:35.919Z,-20608.56
2022-08-29T07:33:05.074Z,-20611.28
2022-08-29T07:35:33.339Z,-20632.03
2022-08-29T07:38:02.161Z,-20624.63
2022-08-29T07:40:29.983Z,-20633.09
2022-08-29T07:42:57.754Z,-20632.78
2022-08-29T07:45:25.427Z,-20639.16
2022-08-29T07:47:53.141Z,-20639.75
2022-08-29T07:50:22.159Z,-20647.75
2022-08-29T07:52:49.790Z,-20644.28
2022-08-29T07:55:17.794Z,-20659.56
2022-08-29T07:57:46.489Z,-20657.75
2022-08-29T08:00:14.644Z,-20646.84
2022-08-29T08:02:42.358Z,-20664.09
2022-08-29T08:05:10.435Z,-20666.22
2022-08-29T08:07:40.327Z,-20671.81
2022-08-29T08:10:09.839Z,-20654.56
2022-08-29T08:12:37.548Z,-20651.69
2022-08-29T08:15:05.935Z,-20657.00
2022-08-29T08:17:34.151Z,-20669.84
2022-08-29T08:20:01.802Z,-20661.06
2022-08-29T08:22:29.645Z,-20673.63
2022-08-29T08:24:58.919Z,-20660.03
2022-08-29T08:27:26.569Z,-20663.66
2022-08-29T08:29:54.394Z,-20667.88
2022-08-29T08:32:23.261Z,-20672.88
2022-08-29T08:34:59.952Z,-20671.50
2022-08-29T08:37:28.245Z,-20679.22
2022-08-29T08:39:59.326Z,-20679.06
2022-08-29T08:42:42.189Z,-20682.09
2022-08-29T08:45:11.659Z,-20665.47
2022-08-29T08:47:43.510Z,-20658.66
2022-08-29T08:50:20.013Z,-20662.44
2022-08-29T08:52:52.604Z,-20667.13
2022-08-29T08:55:29.231Z,-20669.09
2022-08-29T08:58:06.349Z,-20678.00
2022-08-29T09:00:43.241Z,-20668.34
2022-08-29T09:03:26.322Z,-20679.38
2022-08-29T09:06:08.208Z,-20688.44
2022-08-29T09:08:44.478Z,-20713.50
2022-08-29T09:11:23.463Z,-20719.84
2022-08-29T09:13:59.842Z,-20728.88
2022-08-29T09:16:32.558Z,-20733.88
2022-08-29T09:19:04.470Z,-20724.38
2022-08-29T09:21:47.162Z,-20729.19
2022-08-29T09:24:24.473Z,-20736.44
2022-08-29T09:26:53.814Z,-20742.78
2022-08-29T09:29:21.844Z,-20741.88
2022-08-29T09:32:08.461Z,-20750.59
2022-08-29T09:34:57.455Z,-20747.75
2022-08-29T09:37:29.338Z,-20757.84
2022-08-29T09:40:02.036Z,-20754.53
2022-08-29T09:42:37.786Z,-20769.91
2022-08-29T09:45:17.078Z,-20784.97
2022-08-29T09:47:45.339Z,-20788.56
2022-08-29T09:50:21.064Z,-20785.25
2022-08-29T09:52:53.570Z,-20785.25
2022-08-29T09:55:29.595Z,-20785.56
2022-08-29T09:58:05.089Z,-20796.09
2022-08-29T10:00:36.813Z,-20778.50
2022-08-29T10:03:07.930Z,-20786.75
2022-08-29T10:05:41.404Z,-20817.00
2022-08-29T10:08:26.545Z,-20829.81
2022-08-29T10:10:57.313Z,-20803.31
2022-08-29T10:13:35.513Z,-20798.50
2022-08-29T10:16:13.860Z,-20823.63
2022-08-29T10:18:48.610Z,-20791.28
2022-08-29T10:21:33.639Z,-20795.50
2022-08-29T10:24:19.645Z,-20806.63
2022-08-29T10:26:56.437Z,-20835.22
2022-08-29T10:29:39.888Z,-20823.47
2022-08-29T10:32:15.407Z,-20853.69
2022-08-29T10:35:01.543Z,-20832.97
2022-08-29T10:37:38.018Z,-20859.25
2022-08-29T10:40:10.453Z,-20859.84
2022-08-29T10:42:47.886Z,-20825.88
2022-08-29T10:45:26.389Z,-20840.31
2022-08-29T10:48:02.981Z,-20843.03
2022-08-29T10:50:44.509Z,-20853.84
2022-08-29T10:53:18.219Z,-20827.09
2022-08-29T10:55:53.507Z,-20847.84
2022-08-29T10:58:39.951Z,-20873.97
2022-08-29T11:01:15.803Z,-20837.47
2022-08-29T11:03:50.339Z,-20850.84
2022-08-29T11:06:22.678Z,-20855.50
2022-08-29T11:08:56.685Z,-20876.34
2022-08-29T11:11:27.189Z,-20882.38
2022-08-29T11:14:04.949Z,-20912.38
2022-08-29T11:16:41.133Z,-20879.97
2022-08-29T11:19:20.141Z,-20892.88
2022-08-29T11:21:56.575Z,-20867.34
2022-08-29T11:24:34.159Z,-20864.66
2022-08-29T11:27:11.143Z,-20854.88
2022-08-29T11:29:47.179Z,-20875.91
2022-08-29T11:32:24.778Z,-20889.41
2022-08-29T11:35:06.462Z,-20866.16
2022-08-29T11:38:13.655Z,-20876.06
2022-08-29T11:43:45.863Z,-20865.41
2022-08-29T11:46:15.148Z,-20903.06
2022-08-29T11:48:46.249Z,-20935.44
2022-08-29T11:51:37.411Z,-20904.88
2022-08-29T11:54:42.806Z,-20900.66
2022-08-29T11:57:39.758Z,-20878.47
2022-08-29T12:00:39.229Z,-20847.09
2022-08-29T12:03:56.690Z,-20856.53
2022-08-29T12:06:53.323Z,-20882.38
2022-08-29T12:09:43.893Z,-20880.28
2022-08-29T12:12:31.562Z,-20884.16
2022-08-29T12:14:59.282Z,-20893.31
2022-08-29T12:18:01.485Z,-20905.78
2022-08-29T12:20:40.631Z,-20903.66
2022-08-29T12:23:20.225Z,-20906.38
2022-08-29T12:26:09.573Z,-20906.38
2022-08-29T12:28:44.273Z,-20891.38
2022-08-29T12:32:08.622Z,-20919.84
2022-08-29T12:34:46.325Z,-20915.34
2022-08-29T12:37:30.711Z,-20892.72
2022-08-29T12:40:23.491Z,-20911.16
2022-08-29T12:43:08.978Z,-20928.84
2022-08-29T12:45:39.284Z,-20907.56
2022-08-29T12:48:09.792Z,-20869.00
2022-08-29T12:50:43.748Z,-20892.28
2022-08-29T12:53:19.091Z,-20886.56
2022-08-29T12:55:50.652Z,-20890.78
2022-08-29T12:58:34.808Z,-20869.16
2022-08-29T13:01:02.969Z,-20898.88
2022-08-29T13:03:30.711Z,-20881.78
2022-08-29T13:06:05.266Z,-20876.66
2022-08-29T13:08:37.188Z,-20867.97
2022-08-29T13:11:09.248Z,-20894.81
2022-08-29T13:13:37.930Z,-20899.63
2022-08-29T13:16:08.251Z,-20889.72
2022-08-29T13:18:49.031Z,-20904.25
2022-08-29T13:21:27.093Z,-20905.16
2022-08-29T13:24:02.811Z,-20907.56
2022-08-29T13:26:34.150Z,-20919.72
2022-08-29T13:29:20.797Z,-20918.22
2022-08-29T13:32:11.611Z,-20922.25
2022-08-29T13:34:39.478Z,-20909.66
2022-08-29T13:37:16.421Z,-20896.19
2022-08-29T13:39:49.741Z,-20901.88
2022-08-29T13:42:26.172Z,-20911.63
2022-08-29T13:45:12.373Z,-20923.44
2022-08-29T13:48:00.298Z,-20925.84
2022-08-29T13:50:29.066Z,-20921.81
2022-08-29T13:52:58.530Z,-20921.34
2022-08-29T13:55:26.497Z,-20931.53
2022-08-29T13:57:56.633Z,-20927.06
2022-08-29T14:00:34.832Z,-20940.22
2022-08-29T14:03:05.337Z,-20920.16
2022-08-29T14:05:35.025Z,-20903.38
2022-08-29T14:08:02.699Z,-20910.41
2022-08-29T14:10:30.293Z,-20912.97
2022-08-29T14:12:59.306Z,-20901.41
2022-08-29T14:15:26.942Z,-20915.34
2022-08-29T14:17:54.659Z,-20902.78
2022-08-29T14:20:22.942Z,-20920.91
2022-08-29T14:22:50.886Z,-20924.34
2022-08-29T14:25:20.078Z,-20867.97
2022-08-29T14:27:48.337Z,-20901.72
2022-08-29T14:30:20.320Z,-20902.16
2022-08-29T14:32:47.958Z,-20900.06
2022-08-29T14:35:25.916Z,-20906.97
2022-08-29T14:37:54.056Z,-20889.28
2022-08-29T14:40:22.129Z,-20897.81
2022-08-29T14:42:49.957Z,-20884.16
2022-08-29T14:45:19.233Z,-20881.91
2022-08-29T14:47:47.193Z,-20890.31
2022-08-29T14:50:16.546Z,-20884.78
2022-08-29T14:52:44.839Z,-20886.13
2022-08-29T14:55:14.245Z,-20889.41
2022-08-29T14:57:42.465Z,-20891.66
2022-08-29T15:00:13.807Z,-20898.88
2022-08-29T15:02:43.190Z,-20894.53
2022-08-29T15:05:11.860Z,-20883.28
2022-08-29T15:07:39.675Z,-20886.13
2022-08-29T15:10:09.016Z,-20891.97
2022-08-29T15:12:37.054Z,-20895.88
2022-08-29T15:15:05.218Z,-20899.47
2022-08-29T15:17:32.962Z,-20905.63
2022-08-29T15:22:49.865Z,-20877.13
2022-08-29T15:25:17.682Z,-20880.88
2022-08-29T15:27:47.581Z,-20867.06
2022-08-29T15:30:20.941Z,-20864.34
2022-08-29T15:32:49.283Z,-20886.88
2022-08-29T15:35:18.654Z,-20865.72
2022-08-29T15:37:46.326Z,-20854.44
2022-08-29T15:40:14.325Z,-20852.03
2022-08-29T15:42:42.273Z,-20849.47
2022-08-29T15:45:11.013Z,-20866.75
2022-08-29T15:47:39.575Z,-20871.56
2022-08-29T15:50:09.845Z,-20869.47
2022-08-29T15:52:39.212Z,-20851.75
2022-08-29T15:55:07.772Z,-20852.03
2022-08-29T15:57:51.205Z,-20858.66
2022-08-29T16:00:30.341Z,-20846.94
2022-08-29T16:03:04.371Z,-20839.88
2022-08-29T16:05:33.220Z,-20824.53
2022-08-29T16:08:02.813Z,-20838.50
2022-08-29T16:10:31.556Z,-20829.81
2022-08-29T16:13:00.061Z,-20843.03
2022-08-29T16:15:30.842Z,-20843.16
2022-08-29T16:17:59.902Z,-20844.53
2022-08-29T16:20:27.670Z,-20828.59
2022-08-29T16:22:56.156Z,-20818.66
2022-08-29T16:25:26.093Z,-20808.44
2022-08-29T16:27:54.130Z,-20816.25
2022-08-29T16:30:22.557Z,-20803.19
2022-08-29T16:32:51.221Z,-20806.47
2022-08-29T16:35:20.190Z,-20813.25
2022-08-29T16:37:47.850Z,-20808.59
2022-08-29T16:40:32.142Z,-20804.38
2022-08-29T16:42:59.982Z,-20804.53
2022-08-29T16:45:27.655Z,-20791.13
2022-08-29T16:47:57.548Z,-20797.91
2022-08-29T16:50:26.151Z,-20794.91
2022-08-29T16:52:54.426Z,-20789.47
2022-08-29T16:55:22.793Z,-20791.28
2022-08-29T16:58:05.918Z,-20785.25
2022-08-29T17:00:33.707Z,-20778.63
2022-08-29T17:03:01.512Z,-20767.78
2022-08-29T17:05:29.234Z,-20768.69
2022-08-29T17:07:55.783Z,-20768.25
2022-08-29T17:10:22.341Z,-20761.47
2022-08-29T17:12:50.264Z,-20756.78
2022-08-29T17:15:17.033Z,-20760.09
2022-08-29T17:17:44.900Z,-20760.41
2022-08-29T17:20:12.988Z,-20757.69
2022-08-29T17:22:40.619Z,-20745.78
2022-08-29T17:25:09.108Z,-20752.13
2022-08-29T17:27:37.092Z,-20744.28
2022-08-29T17:30:07.424Z,-20747.44
2022-08-29T17:32:35.119Z,-20741.88
2022-08-29T17:35:02.877Z,-20742.16
2022-08-29T17:37:35.916Z,-20740.97
2022-08-29T17:40:05.504Z,-20735.81
2022-08-29T17:42:33.397Z,-20736.13
2022-08-29T17:45:01.204Z,-20731.00
2022-08-29T17:47:30.307Z,-20723.91
2022-08-29T17:49:57.999Z,-20717.41
2022-08-29T17:52:25.762Z,-20723.59
2022-08-29T17:54:53.420Z,-20718.78
2022-08-29T17:57:21.110Z,-20719.09
2022-08-29T17:59:48.829Z,-20713.03
2022-08-29T18:02:16.692Z,-20712.13
2022-08-29T18:04:45.750Z,-20714.69
2022-08-29T18:07:13.417Z,-20703.84
2022-08-29T18:09:41.106Z,-20701.13
2022-08-29T18:12:09.407Z,-20700.66
2022-08-29T18:14:37.083Z,-20707.75
2022-08-29T18:17:05.785Z,-20706.25
2022-08-29T18:19:33.558Z,-20701.28
2022-08-29T18:22:02.657Z,-20702.31
2022-08-29T18:24:30.332Z,-20698.41
2022-08-29T18:26:58.032Z,-20692.97
2022-08-29T18:29:25.691Z,-20696.72
2022-08-29T18:31:53.344Z,-20696.59
2022-08-29T18:34:21.273Z,-20686.31
2022-08-29T18:36:49.442Z,-20687.38
2022-08-29T18:39:18.964Z,-20687.06
2022-08-29T18:41:47.515Z,-20685.41
2022-08-29T18:44:15.274Z,-20686.31
2022-08-29T18:46:48.216Z,-20682.69
2022-08-29T18:49:16.934Z,-20682.25
2022-08-29T18:51:44.684Z,-20677.09
2022-08-29T18:54:16.319Z,-20676.34
2022-08-29T18:56:48.135Z,-20663.78
2022-08-29T18:59:15.944Z,-20667.28
2022-08-29T19:01:43.727Z,-20663.78
2022-08-29T19:04:11.513Z,-20664.25
2022-08-29T19:06:39.392Z,-20668.94
2022-08-29T19:09:07.175Z,-20663.94
2022-08-29T19:11:34.839Z,-20658.50
2022-08-29T19:14:04.701Z,-20653.06
2022-08-29T19:16:33.442Z,-20656.84
2022-08-29T19:19:01.227Z,-20650.03
2022-08-29T19:21:27.955Z,-20651.53
2022-08-29T19:23:56.419Z,-20647.31
2022-08-29T19:26:28.196Z,-20647.31
2022-08-29T19:28:58.714Z,-20636.56
2022-08-29T19:31:29.448Z,-20635.50
2022-08-29T19:33:58.255Z,-20626.72
2022-08-29T19:36:27.010Z,-20630.22
2022-08-29T19:38:54.849Z,-20630.38
2022-08-29T19:41:22.727Z,-20622.50
2022-08-29T19:43:53.070Z,-20627.63
2022-08-29T19:46:24.139Z,-20624.75
2022-08-29T19:48:53.483Z,-20623.41
2022-08-29T19:53:53.372Z,-20622.78
2022-08-29T19:56:21.183Z,-20616.75
2022-08-29T19:58:49.547Z,-20612.66
2022-08-29T20:01:17.720Z,-20614.31
2022-08-29T20:03:45.642Z,-20609.16
2022-08-29T20:06:14.796Z,-20604.31
2022-08-29T20:08:46.701Z,-20601.91
2022-08-29T20:11:18.965Z,-20597.66
2022-08-29T20:13:50.483Z,-20593.56
2022-08-29T20:16:20.931Z,-20593.13
2022-08-29T20:18:49.430Z,-20588.56
2022-08-29T20:21:19.759Z,-20584.00
2022-08-29T20:23:49.974Z,-20581.00
2022-08-29T20:26:19.528Z,-20576.91
2022-08-29T20:28:48.806Z,-20565.06
2022-08-29T20:31:16.571Z,-20572.19
2022-08-29T20:33:44.731Z,-20570.06
2022-08-29T20:36:30.635Z,-20567.19
2022-08-29T20:38:59.706Z,-20562.50
2022-08-29T20:41:28.714Z,-20561.28
2022-08-29T20:43:56.415Z,-20556.41
2022-08-29T20:46:24.087Z,-20555.97
2022-08-29T20:48:51.596Z,-20548.53
2022-08-29T20:51:19.078Z,-20542.63
2022-08-29T20:53:46.656Z,-20534.56
2022-08-29T20:56:15.500Z,-20535.94
2022-08-29T20:58:42.937Z,-20531.69
2022-08-29T21:01:10.489Z,-20525.75
2022-08-29T21:03:55.705Z,-20523.78
2022-08-29T21:06:23.148Z,-20522.13
2022-08-29T21:08:51.211Z,-20516.34
2022-08-29T21:11:20.921Z,-20507.69
2022-08-29T21:13:53.021Z,-20508.44
2022-08-29T21:16:21.285Z,-20505.72
2022-08-29T21:18:52.203Z,-20502.97
2022-08-29T21:21:24.716Z,-20501.91
2022-08-29T21:23:53.221Z,-20503.59
2022-08-29T21:26:22.173Z,-20499.78
2022-08-29T21:28:49.782Z,-20498.13
2022-08-29T21:31:18.300Z,-20495.69
2022-08-29T21:33:46.658Z,-20497.22
2022-08-29T21:36:15.998Z,-20491.44
2022-08-29T21:38:43.628Z,-20492.50
2022-08-29T21:41:11.918Z,-20489.31
2022-08-29T21:43:42.698Z,-20485.81
2022-08-29T21:46:17.820Z,-20483.53
2022-08-29T21:48:46.962Z,-20483.22
2022-08-29T21:51:18.565Z,-20480.34
2022-08-29T21:53:47.324Z,-20479.28
2022-08-29T21:56:14.955Z,-20478.06
2022-08-29T21:58:44.676Z,-20476.38
2022-08-29T22:01:12.350Z,-20476.09
2022-08-29T22:03:40.339Z,-20476.84
2022-08-29T22:06:09.115Z,-20471.22
2022-08-29T22:08:38.894Z,-20469.25
2022-08-29T22:11:13.818Z,-20468.34
2022-08-29T22:13:41.567Z,-20471.69
2022-08-29T22:16:29.004Z,-20470.16
2022-08-29T22:19:02.189Z,-20467.88
2022-08-29T22:21:32.982Z,-20466.81
2022-08-29T22:24:01.697Z,-20463.16
2022-08-29T22:26:30.095Z,-20465.59
2022-08-29T22:28:57.752Z,-20463.75
2022-08-29T22:31:27.241Z,-20461.19
2022-08-29T22:33:54.999Z,-20460.25
2022-08-29T22:36:22.662Z,-20458.59
2022-08-29T22:38:55.406Z,-20454.78
2022-08-29T22:41:24.981Z,-20451.44
2022-08-29T22:44:11.418Z,-20449.47
2022-08-29T22:46:45.050Z,-20450.69
2022-08-29T22:49:13.008Z,-20450.06
2022-08-29T22:51:41.013Z,-20449.47
2022-08-29T22:54:26.366Z,-20448.25
2022-08-29T22:56:54.589Z,-20445.81
2022-08-29T22:59:22.681Z,-20446.41
2022-08-29T23:01:51.941Z,-20446.56
2022-08-29T23:04:20.103Z,-20442.00
2022-08-29T23:06:47.837Z,-20443.38
2022-08-29T23:09:15.738Z,-20439.41
2022-08-29T23:11:44.075Z,-20441.25
2022-08-29T23:14:12.709Z,-20439.72
2022-08-29T23:16:40.892Z,-20440.34
2022-08-29T23:19:10.182Z,-20437.28
2022-08-29T23:21:39.689Z,-20435.78
2022-08-29T23:24:09.159Z,-20433.78
2022-08-29T23:26:36.834Z,-20433.34
2022-08-29T23:29:04.571Z,-20431.22
2022-08-29T23:31:32.165Z,-20428.00
2022-08-29T23:33:59.749Z,-20427.09
2022-08-29T23:36:28.554Z,-20425.72
2022-08-29T23:38:56.027Z,-20425.88
2022-08-29T23:41:23.955Z,-20427.09
2022-08-29T23:43:51.788Z,-20424.50
2022-08-29T23:46:19.343Z,-20422.69
2022-08-29T23:48:46.947Z,-20419.63
2022-08-29T23:51:15.029Z,-20421.91
2022-08-29T23:53:44.465Z,-20418.41
2022-08-29T23:56:13.658Z,-20418.09
2022-08-29T23:58:41.437Z,-20417.03
